createdAt,value
2017-12-23T00:01:20.515Z,5.25
2017-12-23T00:07:24.472Z,4.79
2017-12-23T00:13:28.858Z,4.37
2017-12-23T00:19:32.399Z,4.02
2017-12-23T00:25:36.729Z,3.78
2017-12-23T00:31:40.237Z,3.77
2017-12-23T00:37:44.515Z,3.59
2017-12-23T00:43:48.894Z,3.60
2017-12-23T00:49:53.246Z,3.55
2017-12-23T00:55:57.245Z,3.45
2017-12-23T01:02:00.744Z,3.41
2017-12-23T01:08:05.885Z,3.40
2017-12-23T01:14:10.138Z,3.56
2017-12-23T01:20:13.631Z,3.76
2017-12-23T01:26:17.395Z,3.93
2017-12-23T01:32:21.049Z,4.04
2017-12-23T01:38:25.885Z,4.06
2017-12-23T01:44:29.485Z,4.11
2017-12-23T01:50:33.061Z,4.02
2017-12-23T01:56:36.581Z,3.94
2017-12-23T02:02:40.101Z,3.86
2017-12-23T02:08:43.582Z,3.94
2017-12-23T02:14:47.191Z,3.99
2017-12-23T02:20:51.166Z,4.07
2017-12-23T02:26:55.828Z,4.21
2017-12-23T02:32:59.526Z,4.27
2017-12-23T02:39:03.030Z,4.49
2017-12-23T02:45:07.270Z,4.70
2017-12-23T02:51:10.825Z,4.85
2017-12-23T02:57:15.067Z,5.05
2017-12-23T03:03:18.588Z,5.17
2017-12-23T03:09:22.855Z,5.29
2017-12-23T03:15:26.450Z,5.45
2017-12-23T03:21:29.980Z,5.54
2017-12-23T03:27:33.504Z,5.60
2017-12-23T03:33:37.138Z,5.70
2017-12-23T03:39:40.722Z,5.66
2017-12-23T03:45:45.072Z,5.71
2017-12-23T03:51:48.619Z,5.75
2017-12-23T03:57:52.383Z,5.81
2017-12-23T04:03:56.230Z,5.94
2017-12-23T04:09:59.725Z,5.93
2017-12-23T04:16:04.105Z,5.92
2017-12-23T04:22:08.758Z,5.96
2017-12-23T04:28:12.407Z,6.10
2017-12-23T04:34:15.879Z,6.17
2017-12-23T04:40:19.406Z,6.28
2017-12-23T04:46:23.104Z,6.27
2017-12-23T04:52:27.352Z,6.33
2017-12-23T04:58:30.845Z,6.32
2017-12-23T05:04:34.367Z,6.33
2017-12-23T05:10:38.644Z,6.45
2017-12-23T05:16:43.006Z,6.54
2017-12-23T05:22:47.286Z,6.63
2017-12-23T05:28:52.043Z,6.69
2017-12-23T05:34:56.687Z,6.76
2017-12-23T05:41:00.248Z,6.80
2017-12-23T05:47:03.747Z,6.89
2017-12-23T05:53:07.232Z,6.94
2017-12-23T05:59:10.746Z,6.98
2017-12-23T06:05:14.237Z,7.01
2017-12-23T06:11:17.779Z,7.08
2017-12-23T06:17:22.650Z,7.10
2017-12-23T06:23:26.232Z,7.09
2017-12-23T06:29:30.525Z,7.20
2017-12-23T06:35:34.097Z,7.35
2017-12-23T06:41:37.605Z,7.45
2017-12-23T06:47:41.934Z,7.47
2017-12-23T06:53:45.472Z,7.46
2017-12-23T06:59:49.153Z,7.52
2017-12-23T07:05:52.699Z,7.58
2017-12-23T07:11:56.332Z,7.71
2017-12-23T07:17:59.939Z,7.89
2017-12-23T07:24:03.441Z,7.98
2017-12-23T07:30:06.979Z,8.01
2017-12-23T07:36:10.511Z,8.03
2017-12-23T07:42:13.993Z,8.10
2017-12-23T07:48:17.483Z,8.14
2017-12-23T07:54:21.059Z,8.23
2017-12-23T08:00:24.544Z,8.25
2017-12-23T08:06:28.030Z,8.29
2017-12-23T08:12:31.535Z,8.33
2017-12-23T08:18:35.313Z,8.33
2017-12-23T08:24:39.717Z,8.35
2017-12-23T08:30:43.221Z,8.35
2017-12-23T08:36:46.709Z,8.32
2017-12-23T08:42:50.181Z,8.31
2017-12-23T08:48:53.863Z,8.32
2017-12-23T08:54:57.355Z,8.32
2017-12-23T09:01:01.627Z,8.36
2017-12-23T09:07:05.914Z,8.41
2017-12-23T09:13:09.440Z,8.48
2017-12-23T09:19:12.981Z,8.57
2017-12-23T09:25:16.503Z,8.65
2017-12-23T09:31:20.036Z,8.71
2017-12-23T09:37:23.814Z,8.72
2017-12-23T09:43:27.306Z,8.80
2017-12-23T09:49:30.797Z,8.82
2017-12-23T09:55:35.015Z,8.87
2017-12-23T10:01:38.511Z,8.85
2017-12-23T10:07:42.236Z,8.79
2017-12-23T10:13:45.713Z,8.73
2017-12-23T10:19:49.257Z,8.69
2017-12-23T10:25:52.797Z,8.61
2017-12-23T10:31:56.423Z,8.59
2017-12-23T10:37:59.940Z,8.69
2017-12-23T10:44:03.445Z,8.67
2017-12-23T10:50:06.959Z,8.68
2017-12-23T10:56:11.204Z,8.65
2017-12-23T11:02:14.689Z,8.57
2017-12-23T11:08:18.210Z,8.55
2017-12-23T11:14:23.296Z,8.60
2017-12-23T11:20:26.771Z,8.64
2017-12-23T11:26:30.306Z,8.64
2017-12-23T11:32:33.826Z,8.62
2017-12-23T11:38:37.488Z,8.60
2017-12-23T11:44:41.137Z,8.58
2017-12-23T11:50:44.744Z,8.59
2017-12-23T11:56:48.217Z,8.63
2017-12-23T12:02:53.039Z,8.61
2017-12-23T12:08:56.771Z,8.62
2017-12-23T12:15:00.329Z,8.61
2017-12-23T12:21:04.190Z,8.63
2017-12-23T12:27:08.566Z,8.65
2017-12-23T12:33:12.827Z,8.68
2017-12-23T12:39:17.084Z,8.70
2017-12-23T12:45:21.034Z,8.74
2017-12-23T12:51:24.910Z,8.76
2017-12-23T12:57:28.637Z,8.77
2017-12-23T13:03:32.332Z,8.88
2017-12-23T13:09:36.726Z,8.95
2017-12-23T13:15:41.193Z,8.95
2017-12-23T13:21:45.445Z,9.03
2017-12-23T13:27:49.016Z,9.08
2017-12-23T13:33:52.699Z,9.02
2017-12-23T13:39:56.539Z,8.99
2017-12-23T13:46:00.793Z,8.94
2017-12-23T13:52:04.253Z,8.92
2017-12-23T13:58:07.770Z,8.90
2017-12-23T14:04:11.311Z,8.86
2017-12-23T14:10:14.904Z,8.82
2017-12-23T14:16:18.509Z,8.76
2017-12-23T14:22:22.319Z,8.76
2017-12-23T14:28:25.927Z,8.68
2017-12-23T14:34:29.607Z,8.67
2017-12-23T14:40:33.146Z,8.68
2017-12-23T14:46:36.706Z,8.64
2017-12-23T14:52:40.203Z,8.64
2017-12-23T14:58:43.814Z,8.59
2017-12-23T15:04:47.341Z,8.55
2017-12-23T15:10:51.883Z,8.49
2017-12-23T15:16:55.727Z,8.46
2017-12-23T15:22:59.442Z,8.45
2017-12-23T15:29:03.717Z,8.47
2017-12-23T15:35:07.996Z,8.44
2017-12-23T15:41:12.430Z,8.51
2017-12-23T15:47:15.967Z,8.48
2017-12-23T15:53:19.535Z,8.49
2017-12-23T15:59:23.477Z,8.48
2017-12-23T16:05:26.984Z,8.51
2017-12-23T16:11:30.637Z,8.52
2017-12-23T16:17:34.894Z,8.54
2017-12-23T16:23:38.390Z,8.53
2017-12-23T16:29:41.973Z,8.55
2017-12-23T16:35:45.804Z,8.56
2017-12-23T16:41:49.350Z,8.64
2017-12-23T17:04:07.925Z,8.46
2017-12-23T17:10:11.558Z,8.47
2017-12-23T17:16:15.168Z,8.57
2017-12-23T17:22:19.911Z,8.62
2017-12-23T17:45:34.358Z,8.64
2017-12-23T17:51:38.651Z,8.64
2017-12-23T17:57:42.147Z,8.63
2017-12-23T18:03:45.830Z,8.60
2017-12-23T18:09:49.329Z,8.55
2017-12-23T18:15:53.128Z,8.58
2017-12-23T18:21:56.977Z,8.59
2017-12-23T18:28:00.619Z,8.57
2017-12-23T18:34:04.165Z,8.53
2017-12-23T18:40:07.649Z,8.47
2017-12-23T18:46:11.240Z,8.44
2017-12-23T18:52:15.487Z,8.47
2017-12-23T18:58:19.817Z,8.44
2017-12-23T19:04:24.648Z,8.47
2017-12-23T19:10:28.226Z,8.50
2017-12-23T19:16:50.584Z,8.51
2017-12-23T19:22:54.202Z,8.52
2017-12-23T19:28:57.744Z,8.55
2017-12-23T19:35:02.036Z,8.59
2017-12-23T19:41:05.538Z,8.62
2017-12-23T19:47:09.073Z,8.60
2017-12-23T19:53:12.593Z,8.63
2017-12-23T19:59:16.138Z,8.65
2017-12-23T20:05:20.502Z,8.65
2017-12-23T20:11:24.449Z,8.69
2017-12-23T20:17:28.100Z,8.74
2017-12-23T20:23:31.641Z,8.73
2017-12-23T20:29:35.430Z,8.82
2017-12-23T20:35:38.999Z,8.84
2017-12-23T20:41:43.351Z,8.84
2017-12-23T20:47:46.865Z,8.81
2017-12-23T20:53:50.357Z,8.82
2017-12-23T20:59:55.609Z,8.79
2017-12-23T21:05:59.133Z,8.84
2017-12-23T21:12:03.444Z,8.82
2017-12-23T21:18:06.954Z,8.84
2017-12-23T21:24:11.338Z,8.82
2017-12-23T21:30:14.848Z,8.81
2017-12-23T21:36:18.372Z,8.79
2017-12-23T21:42:22.501Z,8.80
2017-12-23T21:48:26.749Z,8.80
2017-12-23T21:54:30.302Z,8.80
2017-12-23T22:00:33.885Z,8.75
2017-12-23T22:06:38.178Z,8.75
2017-12-23T22:12:41.673Z,8.75
2017-12-23T22:18:45.180Z,8.74
2017-12-23T22:24:49.586Z,8.73
2017-12-23T22:30:53.341Z,8.75
2017-12-23T22:36:56.929Z,8.79
2017-12-23T22:43:00.456Z,8.82
2017-12-23T22:49:03.969Z,8.87
2017-12-23T22:55:08.331Z,8.89
2017-12-23T23:01:11.939Z,8.92
2017-12-23T23:07:15.444Z,8.94
2017-12-23T23:13:20.004Z,8.99
2017-12-23T23:19:24.483Z,9.01
2017-12-23T23:25:28.226Z,9.05
2017-12-23T23:31:31.717Z,9.07
2017-12-23T23:37:35.998Z,9.09
2017-12-23T23:43:40.265Z,9.14
2017-12-23T23:49:44.709Z,9.18
2017-12-23T23:55:48.400Z,9.25
